createdAt,value
2018-03-28T00:00:01.254Z,148
2018-03-28T00:00:13.435Z,148
2018-03-28T00:00:25.587Z,148
2018-03-28T00:00:37.742Z,146
2018-03-28T00:00:49.894Z,165
2018-03-28T00:01:02.103Z,162
2018-03-28T00:01:14.287Z,159
2018-03-28T00:01:26.437Z,100
2018-03-28T00:01:38.590Z,144
2018-03-28T00:01:50.716Z,138
2018-03-28T00:02:02.888Z,129
2018-03-28T00:02:15.051Z,144
2018-03-28T00:02:27.214Z,151
2018-03-28T00:02:39.575Z,140
2018-03-28T00:02:51.713Z,154
2018-03-28T00:03:03.944Z,154
2018-03-28T00:03:16.089Z,98
2018-03-28T00:03:28.228Z,98
2018-03-28T00:03:40.362Z,98
2018-03-28T00:03:52.519Z,98
2018-03-28T00:04:04.674Z,98
2018-03-28T00:04:16.938Z,98
2018-03-28T00:04:29.402Z,98
2018-03-28T00:04:41.581Z,107
2018-03-28T00:04:53.719Z,132
2018-03-28T00:05:05.856Z,104
2018-03-28T00:05:18.006Z,92
2018-03-28T00:05:30.169Z,189
2018-03-28T00:05:42.328Z,151
2018-03-28T00:05:54.479Z,153
2018-03-28T00:06:06.685Z,134
2018-03-28T00:06:18.830Z,153
2018-03-28T00:06:30.981Z,130
2018-03-28T00:06:43.138Z,128
2018-03-28T00:06:55.288Z,128
2018-03-28T00:07:07.452Z,124
2018-03-28T00:07:19.600Z,100
2018-03-28T00:07:31.740Z,116
2018-03-28T00:07:44.043Z,116
2018-03-28T00:07:56.210Z,116
2018-03-28T00:08:08.357Z,116
2018-03-28T00:08:20.504Z,121
2018-03-28T00:08:32.646Z,121
2018-03-28T00:08:44.807Z,121
2018-03-28T00:08:56.951Z,121
2018-03-28T00:09:09.116Z,121
2018-03-28T00:09:21.257Z,121
2018-03-28T00:09:33.388Z,121
2018-03-28T00:09:45.597Z,121
2018-03-28T00:09:57.736Z,121
2018-03-28T00:10:09.884Z,121
2018-03-28T00:10:22.024Z,151
2018-03-28T00:10:34.168Z,161
2018-03-28T00:10:46.299Z,161
2018-03-28T00:10:58.462Z,163
2018-03-28T00:11:10.587Z,156
2018-03-28T00:11:22.726Z,154
2018-03-28T00:11:34.914Z,155
2018-03-28T00:11:47.060Z,124
2018-03-28T00:11:59.206Z,134
2018-03-28T00:12:11.424Z,135
2018-03-28T00:12:23.560Z,143
2018-03-28T00:12:35.684Z,155
2018-03-28T00:12:48.182Z,159
2018-03-28T00:13:00.458Z,145
2018-03-28T00:13:12.607Z,151
2018-03-28T00:13:24.751Z,153
2018-03-28T00:13:36.884Z,125
2018-03-28T00:13:49.045Z,120
2018-03-28T00:14:01.194Z,146
2018-03-28T00:14:13.342Z,146
2018-03-28T00:14:25.470Z,144
2018-03-28T00:14:37.630Z,144
2018-03-28T00:14:49.793Z,144
2018-03-28T00:15:01.980Z,142
2018-03-28T00:15:14.144Z,142
2018-03-28T00:15:26.299Z,142
2018-03-28T00:15:38.456Z,142
2018-03-28T00:15:50.592Z,142
2018-03-28T00:16:02.742Z,142
2018-03-28T00:16:14.958Z,142
2018-03-28T00:16:27.162Z,142
2018-03-28T00:16:39.308Z,142
2018-03-28T00:16:51.454Z,142
2018-03-28T00:17:03.595Z,142
2018-03-28T00:17:15.723Z,142
2018-03-28T00:17:27.885Z,142
2018-03-28T00:17:40.074Z,158
2018-03-28T00:17:52.246Z,159
2018-03-28T00:18:04.428Z,158
2018-03-28T00:18:16.558Z,158
2018-03-28T00:18:28.700Z,158
2018-03-28T00:18:40.954Z,132
2018-03-28T00:18:53.113Z,142
2018-03-28T00:19:05.251Z,117
2018-03-28T00:19:17.392Z,116
2018-03-28T00:19:29.542Z,116
2018-03-28T00:19:41.714Z,116
2018-03-28T00:19:53.856Z,116
2018-03-28T00:20:06.015Z,116
2018-03-28T00:20:18.160Z,116
2018-03-28T00:20:30.299Z,116
2018-03-28T00:20:42.439Z,116
2018-03-28T00:20:54.648Z,116
2018-03-28T00:21:06.798Z,116
2018-03-28T00:21:18.950Z,116
2018-03-28T00:21:31.216Z,116
2018-03-28T00:21:43.373Z,130
2018-03-28T00:21:55.759Z,142
2018-03-28T00:22:07.904Z,140
2018-03-28T00:22:20.059Z,124
2018-03-28T00:22:32.252Z,126
2018-03-28T00:22:44.404Z,126
2018-03-28T00:22:56.540Z,121
2018-03-28T00:23:08.673Z,119
2018-03-28T00:23:20.837Z,44
2018-03-28T00:23:32.981Z,34
2018-03-28T00:23:45.136Z,34
2018-03-28T00:23:57.287Z,44
2018-03-28T00:24:09.425Z,44
2018-03-28T00:24:21.577Z,44
2018-03-28T00:24:33.734Z,44
2018-03-28T00:24:45.941Z,44
2018-03-28T00:24:58.101Z,44
2018-03-28T00:25:10.270Z,44
2018-03-28T00:25:22.413Z,44
2018-03-28T00:25:34.557Z,44
2018-03-28T00:25:46.707Z,44
2018-03-28T00:25:58.843Z,44
2018-03-28T00:26:11.038Z,44
2018-03-28T00:26:23.255Z,44
2018-03-28T00:26:35.574Z,44
2018-03-28T00:26:47.723Z,44
2018-03-28T00:26:59.870Z,44
2018-03-28T00:27:12.043Z,44
2018-03-28T00:27:24.249Z,44
2018-03-28T00:27:36.392Z,44
2018-03-28T00:27:48.528Z,44
2018-03-28T00:28:00.661Z,44
2018-03-28T00:28:12.808Z,44
2018-03-28T00:28:24.959Z,44
2018-03-28T00:28:37.142Z,44
2018-03-28T00:28:49.303Z,139
2018-03-28T00:29:01.451Z,131
2018-03-28T00:29:13.603Z,142
2018-03-28T00:29:25.802Z,142
2018-03-28T00:29:37.964Z,142
2018-03-28T00:29:50.121Z,146
2018-03-28T00:30:02.781Z,155
2018-03-28T00:30:14.931Z,139
2018-03-28T00:30:27.064Z,127
2018-03-28T00:30:39.219Z,51
2018-03-28T00:30:51.355Z,49
2018-03-28T00:31:03.504Z,49
2018-03-28T00:31:15.662Z,49
2018-03-28T00:31:27.808Z,115
2018-03-28T00:31:39.965Z,156
2018-03-28T00:31:52.134Z,155
2018-03-28T00:32:04.297Z,152
2018-03-28T00:32:16.434Z,159
2018-03-28T00:32:28.639Z,126
2018-03-28T00:32:40.802Z,119
2018-03-28T00:32:52.942Z,164
2018-03-28T00:33:05.087Z,144
2018-03-28T00:33:17.237Z,163
2018-03-28T00:33:29.396Z,132
2018-03-28T00:33:41.539Z,132
2018-03-28T00:33:53.678Z,132
2018-03-28T00:34:05.808Z,132
2018-03-28T00:34:17.950Z,148
2018-03-28T00:34:30.096Z,160
2018-03-28T00:34:42.269Z,160
2018-03-28T00:34:54.419Z,155
2018-03-28T00:35:06.580Z,155
2018-03-28T00:35:18.719Z,123
2018-03-28T00:35:30.847Z,98
2018-03-28T00:35:42.991Z,178
2018-03-28T00:35:55.194Z,121
2018-03-28T00:36:07.341Z,149
2018-03-28T00:36:19.493Z,161
2018-03-28T00:36:31.687Z,149
2018-03-28T00:36:43.853Z,149
2018-03-28T00:36:56.005Z,149
2018-03-28T00:37:08.150Z,131
2018-03-28T00:37:20.346Z,130
2018-03-28T00:37:32.494Z,130
2018-03-28T00:37:44.728Z,130
2018-03-28T00:37:56.893Z,130
2018-03-28T00:38:09.044Z,130
2018-03-28T00:38:21.192Z,130
2018-03-28T00:38:33.383Z,165
2018-03-28T00:38:45.545Z,159
2018-03-28T00:38:57.707Z,155
2018-03-28T00:39:09.908Z,151
2018-03-28T00:39:22.064Z,115
2018-03-28T00:39:34.281Z,134
2018-03-28T00:39:46.432Z,134
2018-03-28T00:39:58.572Z,150
2018-03-28T00:40:11.019Z,150
2018-03-28T00:40:23.148Z,134
2018-03-28T00:40:35.291Z,143
2018-03-28T00:40:47.438Z,134
2018-03-28T00:40:59.581Z,159
2018-03-28T00:41:11.814Z,161
2018-03-28T00:41:23.950Z,163
2018-03-28T00:41:36.099Z,164
2018-03-28T00:41:48.244Z,162
2018-03-28T00:42:00.405Z,117
2018-03-28T00:42:12.535Z,84
2018-03-28T00:42:24.944Z,142
2018-03-28T00:42:37.188Z,135
2018-03-28T00:42:49.339Z,144
2018-03-28T00:43:01.478Z,142
2018-03-28T00:43:13.617Z,137
2018-03-28T00:43:25.768Z,132
2018-03-28T00:43:37.902Z,128
2018-03-28T00:43:50.054Z,148
2018-03-28T00:44:02.329Z,138
2018-03-28T00:44:14.486Z,131
2018-03-28T00:44:26.641Z,67
2018-03-28T00:44:38.780Z,115
2018-03-28T00:44:50.981Z,121
2018-03-28T00:45:03.117Z,134
2018-03-28T00:45:15.332Z,134
2018-03-28T00:45:27.456Z,134
2018-03-28T00:45:39.597Z,126
2018-03-28T00:45:51.756Z,138
2018-03-28T00:46:03.942Z,163
2018-03-28T00:46:16.075Z,109
2018-03-28T00:46:28.206Z,145
2018-03-28T00:46:40.340Z,117
2018-03-28T00:46:52.518Z,153
2018-03-28T00:47:04.707Z,152
2018-03-28T00:47:16.840Z,152
2018-03-28T00:47:29.001Z,152
2018-03-28T00:47:41.150Z,148
2018-03-28T00:47:53.362Z,133
2018-03-28T00:48:05.662Z,164
2018-03-28T00:48:17.809Z,155
2018-03-28T00:48:29.953Z,164
2018-03-28T00:48:42.140Z,143
2018-03-28T00:48:54.373Z,135
2018-03-28T00:49:06.510Z,126
2018-03-28T00:49:18.642Z,126
2018-03-28T00:49:30.770Z,128
2018-03-28T00:49:42.953Z,156
2018-03-28T00:49:55.115Z,158
2018-03-28T00:50:07.270Z,158
2018-03-28T00:50:19.415Z,158
2018-03-28T00:50:31.554Z,158
2018-03-28T00:50:43.755Z,122
2018-03-28T00:50:55.887Z,110
2018-03-28T00:51:08.009Z,148
2018-03-28T00:51:20.175Z,131
2018-03-28T00:51:32.368Z,131
2018-03-28T00:51:44.500Z,140
2018-03-28T00:51:56.646Z,136
2018-03-28T00:52:08.821Z,145
2018-03-28T00:52:21.028Z,131
2018-03-28T00:52:33.224Z,144
2018-03-28T00:52:45.375Z,144
2018-03-28T00:52:57.594Z,144
2018-03-28T00:53:09.743Z,157
2018-03-28T00:53:21.894Z,157
2018-03-28T00:53:34.038Z,156
2018-03-28T00:53:46.164Z,118
2018-03-28T00:53:58.321Z,144
2018-03-28T00:54:10.448Z,155
2018-03-28T00:54:22.631Z,155
2018-03-28T00:54:34.785Z,148
2018-03-28T00:54:46.936Z,145
2018-03-28T00:54:59.241Z,148
2018-03-28T00:55:11.382Z,148
2018-03-28T00:55:23.527Z,155
2018-03-28T00:55:35.665Z,159
2018-03-28T00:55:47.819Z,155
2018-03-28T00:55:59.980Z,156
2018-03-28T00:56:12.122Z,155
2018-03-28T00:56:24.765Z,132
2018-03-28T00:56:36.904Z,123
2018-03-28T00:56:49.044Z,128
2018-03-28T00:57:01.189Z,157
2018-03-28T00:57:13.512Z,157
2018-03-28T00:57:25.677Z,157
2018-03-28T00:57:37.813Z,157
2018-03-28T00:57:49.943Z,157
2018-03-28T00:58:02.095Z,169
2018-03-28T00:58:14.227Z,168
2018-03-28T00:58:26.386Z,168
2018-03-28T00:58:38.549Z,136
2018-03-28T00:58:50.709Z,119
2018-03-28T00:59:02.874Z,109
2018-03-28T00:59:15.028Z,175
2018-03-28T00:59:27.172Z,148
2018-03-28T00:59:39.303Z,162
2018-03-28T00:59:51.460Z,143
2018-03-28T01:00:03.702Z,123
2018-03-28T01:00:15.898Z,104
2018-03-28T01:00:28.039Z,123
2018-03-28T01:00:40.188Z,122
2018-03-28T01:00:52.341Z,117
2018-03-28T01:01:04.473Z,117
2018-03-28T01:01:16.621Z,117
2018-03-28T01:01:28.798Z,117
2018-03-28T01:01:40.981Z,117
2018-03-28T01:01:53.130Z,117
2018-03-28T01:02:05.342Z,123
2018-03-28T01:02:17.489Z,123
2018-03-28T01:02:29.641Z,122
2018-03-28T01:02:41.989Z,112
2018-03-28T01:02:54.135Z,89
2018-03-28T01:03:06.288Z,89
2018-03-28T01:03:18.441Z,89
2018-03-28T01:03:30.593Z,148
2018-03-28T01:03:42.731Z,155
2018-03-28T01:03:54.869Z,150
2018-03-28T01:04:07.028Z,149
2018-03-28T01:04:19.211Z,148
2018-03-28T01:04:31.398Z,148
2018-03-28T01:04:43.578Z,140
2018-03-28T01:04:55.743Z,147
2018-03-28T01:05:07.902Z,147
2018-03-28T01:05:20.042Z,147
2018-03-28T01:05:32.183Z,117
2018-03-28T01:05:44.455Z,117
2018-03-28T01:05:56.606Z,117
2018-03-28T01:06:08.728Z,117
2018-03-28T01:06:20.873Z,157
2018-03-28T01:06:33.028Z,146
2018-03-28T01:06:45.172Z,142
2018-03-28T01:06:57.304Z,141
2018-03-28T01:07:09.455Z,141
2018-03-28T01:07:21.596Z,141
2018-03-28T01:07:33.733Z,131
2018-03-28T01:07:45.866Z,131
2018-03-28T01:07:58.010Z,145
2018-03-28T01:08:10.159Z,134
2018-03-28T01:08:22.302Z,134
2018-03-28T01:08:34.435Z,139
2018-03-28T01:08:46.573Z,146
2018-03-28T01:08:58.747Z,139
2018-03-28T01:09:10.892Z,143
2018-03-28T01:09:23.027Z,135
2018-03-28T01:09:35.302Z,150
2018-03-28T01:09:47.451Z,150
2018-03-28T01:09:59.650Z,121
2018-03-28T01:10:11.778Z,121
2018-03-28T01:10:23.906Z,121
2018-03-28T01:10:36.189Z,121
2018-03-28T01:10:48.337Z,149
2018-03-28T01:11:00.479Z,139
2018-03-28T01:11:12.651Z,152
2018-03-28T01:11:24.887Z,151
2018-03-28T01:11:37.047Z,150
2018-03-28T01:11:49.202Z,88
2018-03-28T01:12:01.339Z,88
2018-03-28T01:12:13.488Z,121
2018-03-28T01:12:25.629Z,72
2018-03-28T01:12:37.784Z,157
2018-03-28T01:12:49.914Z,133
2018-03-28T01:13:02.236Z,109
2018-03-28T01:13:14.392Z,109
2018-03-28T01:13:26.531Z,135
2018-03-28T01:13:38.686Z,134
2018-03-28T01:13:50.837Z,132
2018-03-28T01:14:02.990Z,156
2018-03-28T01:14:15.139Z,144
2018-03-28T01:14:27.293Z,134
2018-03-28T01:14:39.441Z,134
2018-03-28T01:14:51.584Z,142
2018-03-28T01:15:03.713Z,171
2018-03-28T01:15:15.873Z,132
2018-03-28T01:15:28.016Z,123
2018-03-28T01:15:40.161Z,126
2018-03-28T01:15:52.306Z,139
2018-03-28T01:16:04.471Z,136
2018-03-28T01:16:16.605Z,145
2018-03-28T01:16:28.813Z,134
2018-03-28T01:16:40.969Z,157
2018-03-28T01:16:53.131Z,138
2018-03-28T01:17:05.282Z,142
2018-03-28T01:17:17.457Z,137
2018-03-28T01:17:29.601Z,151
2018-03-28T01:17:41.743Z,132
2018-03-28T01:17:54.070Z,147
2018-03-28T01:18:06.213Z,134
2018-03-28T01:18:18.364Z,155
2018-03-28T01:18:30.500Z,156
2018-03-28T01:18:42.647Z,156
2018-03-28T01:18:54.878Z,156
2018-03-28T01:19:07.019Z,156
2018-03-28T01:19:19.154Z,121
2018-03-28T01:19:31.334Z,120
2018-03-28T01:19:43.463Z,112
2018-03-28T01:19:55.628Z,163
2018-03-28T01:20:07.777Z,180
2018-03-28T01:20:19.914Z,141
2018-03-28T01:20:32.048Z,138
2018-03-28T01:20:44.190Z,133
2018-03-28T01:20:56.329Z,182
2018-03-28T01:21:08.470Z,151
2018-03-28T01:21:20.604Z,137
2018-03-28T01:21:32.737Z,138
2018-03-28T01:21:44.871Z,116
2018-03-28T01:21:57.016Z,116
2018-03-28T01:22:09.297Z,155
2018-03-28T01:22:21.449Z,152
2018-03-28T01:22:33.593Z,142
2018-03-28T01:22:45.757Z,144
2018-03-28T01:22:57.942Z,144
2018-03-28T01:23:10.108Z,150
2018-03-28T01:23:22.244Z,149
2018-03-28T01:23:34.382Z,114
2018-03-28T01:23:46.559Z,74
2018-03-28T01:23:58.712Z,118
2018-03-28T01:24:10.849Z,163
2018-03-28T01:24:23.029Z,142
2018-03-28T01:24:35.171Z,132
2018-03-28T01:24:47.316Z,98
2018-03-28T01:24:59.496Z,69
2018-03-28T01:25:11.669Z,95
2018-03-28T01:25:23.810Z,135
2018-03-28T01:25:35.964Z,131
2018-03-28T01:25:48.157Z,131
2018-03-28T01:26:00.301Z,131
2018-03-28T01:26:12.459Z,152
2018-03-28T01:26:24.582Z,152
2018-03-28T01:26:37.163Z,186
2018-03-28T01:26:49.310Z,117
2018-03-28T01:27:01.442Z,117
2018-03-28T01:27:13.620Z,145
2018-03-28T01:27:25.828Z,128
2018-03-28T01:27:37.953Z,138
2018-03-28T01:27:50.087Z,117
2018-03-28T01:28:02.253Z,117
2018-03-28T01:28:14.388Z,117
2018-03-28T01:28:26.582Z,117
2018-03-28T01:28:38.728Z,120
2018-03-28T01:28:50.876Z,120
2018-03-28T01:29:03.012Z,120
2018-03-28T01:29:15.162Z,146
2018-03-28T01:29:27.284Z,138
2018-03-28T01:29:39.430Z,109
2018-03-28T01:29:51.582Z,79
2018-03-28T01:30:03.726Z,121
2018-03-28T01:30:15.877Z,175
2018-03-28T01:30:28.026Z,157
2018-03-28T01:30:40.165Z,143
2018-03-28T01:30:52.327Z,144
2018-03-28T01:31:04.499Z,146
2018-03-28T01:31:16.637Z,146
2018-03-28T01:31:28.777Z,167
2018-03-28T01:31:40.966Z,140
2018-03-28T01:31:53.111Z,100
2018-03-28T01:32:05.309Z,136
2018-03-28T01:32:17.456Z,126
2018-03-28T01:32:29.602Z,148
2018-03-28T01:32:41.755Z,147
2018-03-28T01:32:53.945Z,147
2018-03-28T01:33:06.141Z,137
2018-03-28T01:33:18.318Z,149
2018-03-28T01:33:30.478Z,117
2018-03-28T01:33:42.623Z,117
2018-03-28T01:33:54.755Z,119
2018-03-28T01:34:06.903Z,119
2018-03-28T01:34:19.066Z,153
2018-03-28T01:34:31.215Z,163
2018-03-28T01:34:43.357Z,144
2018-03-28T01:34:55.489Z,145
2018-03-28T01:35:07.634Z,130
2018-03-28T01:35:19.763Z,142
2018-03-28T01:35:31.905Z,144
2018-03-28T01:35:44.048Z,157
2018-03-28T01:35:56.196Z,155
2018-03-28T01:36:08.343Z,157
2018-03-28T01:36:20.493Z,155
2018-03-28T01:36:32.639Z,153
2018-03-28T01:36:44.778Z,140
2018-03-28T01:36:56.961Z,153
2018-03-28T01:37:09.123Z,155
2018-03-28T01:37:21.260Z,142
2018-03-28T01:37:33.405Z,140
2018-03-28T01:37:45.536Z,137
2018-03-28T01:37:57.823Z,137
2018-03-28T01:38:09.999Z,135
2018-03-28T01:38:22.162Z,135
2018-03-28T01:38:34.318Z,135
2018-03-28T01:38:46.469Z,90
2018-03-28T01:38:58.625Z,109
2018-03-28T01:39:10.833Z,154
2018-03-28T01:39:23.030Z,148
2018-03-28T01:39:35.200Z,154
2018-03-28T01:39:47.342Z,121
2018-03-28T01:39:59.492Z,117
2018-03-28T01:40:11.640Z,128
2018-03-28T01:40:23.803Z,128
2018-03-28T01:40:35.934Z,128
2018-03-28T01:40:48.088Z,128
2018-03-28T01:41:00.236Z,128
2018-03-28T01:41:12.373Z,128
2018-03-28T01:41:24.532Z,178
2018-03-28T01:41:36.675Z,113
2018-03-28T01:41:48.813Z,144
2018-03-28T01:42:00.942Z,117
2018-03-28T01:42:13.080Z,165
2018-03-28T01:42:25.231Z,165
2018-03-28T01:42:37.377Z,148
2018-03-28T01:42:49.511Z,138
2018-03-28T01:43:01.692Z,167
2018-03-28T01:43:13.892Z,128
2018-03-28T01:43:26.034Z,144
2018-03-28T01:43:38.211Z,158
2018-03-28T01:43:50.350Z,135
2018-03-28T01:44:02.845Z,138
2018-03-28T01:44:14.983Z,152
2018-03-28T01:44:27.186Z,142
2018-03-28T01:44:39.331Z,126
2018-03-28T01:44:51.474Z,126
2018-03-28T01:45:03.632Z,126
2018-03-28T01:45:15.762Z,146
2018-03-28T01:45:27.899Z,142
2018-03-28T01:45:40.034Z,142
2018-03-28T01:45:52.250Z,142
2018-03-28T01:46:04.407Z,165
2018-03-28T01:46:16.552Z,169
2018-03-28T01:46:28.691Z,146
2018-03-28T01:46:40.840Z,139
2018-03-28T01:46:53.038Z,54
2018-03-28T01:47:05.260Z,5
2018-03-28T01:47:17.403Z,153
2018-03-28T01:47:29.542Z,160
2018-03-28T01:47:41.670Z,158
2018-03-28T01:47:53.938Z,169
2018-03-28T01:48:06.133Z,108
2018-03-28T01:48:18.276Z,139
2018-03-28T01:48:30.408Z,136
2018-03-28T01:48:42.539Z,110
2018-03-28T01:48:54.763Z,101
2018-03-28T01:49:06.976Z,144
2018-03-28T01:49:19.187Z,141
2018-03-28T01:49:31.351Z,124
2018-03-28T01:49:43.495Z,123
2018-03-28T01:49:55.630Z,140
2018-03-28T01:50:07.807Z,128
2018-03-28T01:50:20.316Z,150
2018-03-28T01:50:32.454Z,156
2018-03-28T01:50:44.602Z,119
2018-03-28T01:50:56.757Z,64
2018-03-28T01:51:08.901Z,58
2018-03-28T01:51:21.034Z,175
2018-03-28T01:51:33.204Z,146
2018-03-28T01:51:45.359Z,137
2018-03-28T01:51:57.528Z,142
2018-03-28T01:52:09.685Z,151
2018-03-28T01:52:21.839Z,151
2018-03-28T01:52:33.978Z,151
2018-03-28T01:52:46.130Z,155
2018-03-28T01:52:58.469Z,175
2018-03-28T01:53:10.625Z,155
2018-03-28T01:53:22.773Z,161
2018-03-28T01:53:34.909Z,146
2018-03-28T01:53:47.033Z,146
2018-03-28T01:53:59.199Z,150
2018-03-28T01:54:11.415Z,155
2018-03-28T01:54:23.556Z,155
2018-03-28T01:54:35.699Z,155
2018-03-28T01:54:48.026Z,155
2018-03-28T01:55:00.299Z,155
2018-03-28T01:55:12.452Z,170
2018-03-28T01:55:24.621Z,169
2018-03-28T01:55:36.753Z,138
2018-03-28T01:55:48.873Z,143
2018-03-28T01:56:01.056Z,138
2018-03-28T01:56:13.268Z,143
2018-03-28T01:56:25.427Z,155
2018-03-28T01:56:37.595Z,132
2018-03-28T01:56:49.747Z,142
2018-03-28T01:57:01.895Z,157
2018-03-28T01:57:14.057Z,155
2018-03-28T01:57:26.197Z,148
2018-03-28T01:57:38.343Z,150
2018-03-28T01:57:50.479Z,144
2018-03-28T01:58:02.614Z,128
2018-03-28T01:58:14.769Z,111
2018-03-28T01:58:26.934Z,113
2018-03-28T01:58:39.118Z,88
2018-03-28T01:58:51.406Z,86
2018-03-28T01:59:03.582Z,90
2018-03-28T01:59:15.781Z,90
2018-03-28T01:59:27.963Z,90
2018-03-28T01:59:40.130Z,142
2018-03-28T01:59:52.269Z,123
2018-03-28T02:00:04.422Z,123
2018-03-28T02:00:16.606Z,123
2018-03-28T02:00:28.794Z,123
2018-03-28T02:00:40.953Z,134
2018-03-28T02:00:53.114Z,121
2018-03-28T02:01:05.252Z,117
2018-03-28T02:01:17.391Z,115
2018-03-28T02:01:29.531Z,105
2018-03-28T02:01:41.683Z,105
2018-03-28T02:01:53.817Z,69
2018-03-28T02:02:05.963Z,70
2018-03-28T02:02:18.104Z,77
2018-03-28T02:02:30.258Z,73
2018-03-28T02:02:42.400Z,108
2018-03-28T02:02:54.766Z,111
2018-03-28T02:03:06.918Z,170
2018-03-28T02:03:19.051Z,180
2018-03-28T02:03:31.189Z,129
2018-03-28T02:03:43.344Z,126
2018-03-28T02:03:55.635Z,101
2018-03-28T02:04:07.764Z,101
2018-03-28T02:04:19.909Z,101
2018-03-28T02:04:32.078Z,106
2018-03-28T02:04:44.221Z,108
2018-03-28T02:04:56.351Z,129
2018-03-28T02:05:08.496Z,158
2018-03-28T02:05:20.700Z,158
2018-03-28T02:05:32.843Z,157
2018-03-28T02:05:44.978Z,187
2018-03-28T02:05:57.134Z,187
2018-03-28T02:06:09.341Z,155
2018-03-28T02:06:21.489Z,155
2018-03-28T02:06:33.656Z,155
2018-03-28T02:06:45.808Z,155
2018-03-28T02:06:58.412Z,155
2018-03-28T02:07:10.554Z,155
2018-03-28T02:07:22.700Z,155
2018-03-28T02:07:34.848Z,166
2018-03-28T02:07:47.061Z,139
2018-03-28T02:07:59.194Z,152
2018-03-28T02:08:11.344Z,166
2018-03-28T02:08:23.502Z,140
2018-03-28T02:08:35.642Z,169
2018-03-28T02:08:47.820Z,129
2018-03-28T02:09:00.021Z,131
2018-03-28T02:09:12.172Z,138
2018-03-28T02:09:24.309Z,148
2018-03-28T02:09:36.453Z,148
2018-03-28T02:09:48.606Z,148
2018-03-28T02:10:00.751Z,148
2018-03-28T02:10:12.906Z,98
2018-03-28T02:10:25.046Z,98
2018-03-28T02:10:37.192Z,73
2018-03-28T02:10:49.323Z,78
2018-03-28T02:11:01.531Z,150
2018-03-28T02:11:13.729Z,114
2018-03-28T02:11:25.888Z,172
2018-03-28T02:11:38.092Z,150
2018-03-28T02:11:50.232Z,150
2018-03-28T02:12:02.387Z,146
2018-03-28T02:12:14.525Z,141
2018-03-28T02:12:26.707Z,152
2018-03-28T02:12:38.851Z,152
2018-03-28T02:12:50.985Z,143
2018-03-28T02:13:03.279Z,155
2018-03-28T02:13:15.439Z,140
2018-03-28T02:13:27.586Z,141
2018-03-28T02:13:39.724Z,141
2018-03-28T02:13:51.935Z,141
2018-03-28T02:14:04.088Z,141
2018-03-28T02:14:16.359Z,140
2018-03-28T02:14:28.520Z,140
2018-03-28T02:14:40.656Z,140
2018-03-28T02:14:52.789Z,117
2018-03-28T02:15:04.930Z,121
2018-03-28T02:15:17.091Z,143
2018-03-28T02:15:29.287Z,143
2018-03-28T02:15:41.423Z,164
2018-03-28T02:15:53.598Z,151
2018-03-28T02:16:05.808Z,142
2018-03-28T02:16:17.968Z,163
2018-03-28T02:16:30.165Z,127
2018-03-28T02:16:42.312Z,127
2018-03-28T02:16:54.533Z,103
2018-03-28T02:17:06.693Z,104
2018-03-28T02:17:18.829Z,121
2018-03-28T02:17:30.966Z,153
2018-03-28T02:17:43.598Z,139
2018-03-28T02:17:55.759Z,140
2018-03-28T02:18:07.902Z,157
2018-03-28T02:18:20.038Z,138
2018-03-28T02:18:32.226Z,96
2018-03-28T02:18:44.374Z,141
2018-03-28T02:18:56.569Z,152
2018-03-28T02:19:08.774Z,132
2018-03-28T02:19:20.911Z,132
2018-03-28T02:19:33.031Z,148
2018-03-28T02:19:45.177Z,148
2018-03-28T02:19:57.323Z,127
2018-03-28T02:20:09.467Z,127
2018-03-28T02:20:21.611Z,134
2018-03-28T02:20:33.774Z,175
2018-03-28T02:20:45.917Z,134
2018-03-28T02:20:58.065Z,118
2018-03-28T02:21:10.210Z,149
2018-03-28T02:21:22.353Z,96
2018-03-28T02:21:34.506Z,106
2018-03-28T02:21:46.651Z,111
2018-03-28T02:21:58.791Z,160
2018-03-28T02:22:10.928Z,134
2018-03-28T02:22:23.067Z,154
2018-03-28T02:22:35.215Z,121
2018-03-28T02:22:47.384Z,121
2018-03-28T02:22:59.539Z,127
2018-03-28T02:23:11.708Z,142
2018-03-28T02:23:23.858Z,138
2018-03-28T02:23:36.048Z,139
2018-03-28T02:23:48.183Z,113
2018-03-28T02:24:00.345Z,142
2018-03-28T02:24:12.529Z,148
2018-03-28T02:24:24.673Z,162
2018-03-28T02:24:36.852Z,163
2018-03-28T02:24:49.039Z,141
2018-03-28T02:25:01.179Z,142
2018-03-28T02:25:13.319Z,130
2018-03-28T02:25:25.460Z,145
2018-03-28T02:25:37.617Z,139
2018-03-28T02:25:49.834Z,129
2018-03-28T02:26:01.998Z,101
2018-03-28T02:26:14.185Z,113
2018-03-28T02:26:26.327Z,97
2018-03-28T02:26:38.644Z,140
2018-03-28T02:26:50.839Z,125
2018-03-28T02:27:02.986Z,139
2018-03-28T02:27:15.132Z,142
2018-03-28T02:27:27.276Z,126
2018-03-28T02:27:39.424Z,118
2018-03-28T02:27:51.585Z,118
2018-03-28T02:28:03.744Z,118
2018-03-28T02:28:15.890Z,165
2018-03-28T02:28:28.044Z,115
2018-03-28T02:28:40.178Z,156
2018-03-28T02:28:52.330Z,147
2018-03-28T02:29:04.570Z,148
2018-03-28T02:29:16.731Z,147
2018-03-28T02:29:28.875Z,147
2018-03-28T02:29:41.006Z,138
2018-03-28T02:29:53.200Z,103
2018-03-28T02:30:05.365Z,148
2018-03-28T02:30:17.529Z,115
2018-03-28T02:30:29.757Z,98
2018-03-28T02:30:41.911Z,87
2018-03-28T02:30:54.085Z,87
2018-03-28T02:31:06.246Z,87
2018-03-28T02:31:18.437Z,87
2018-03-28T02:31:30.614Z,87
2018-03-28T02:31:42.825Z,87
2018-03-28T02:31:54.976Z,87
2018-03-28T02:32:07.137Z,87
2018-03-28T02:32:19.403Z,87
2018-03-28T02:32:31.586Z,87
2018-03-28T02:32:43.740Z,87
2018-03-28T02:32:55.912Z,122
2018-03-28T02:33:08.133Z,122
2018-03-28T02:33:20.318Z,122
2018-03-28T02:33:32.497Z,153
2018-03-28T02:33:44.672Z,140
2018-03-28T02:33:56.854Z,138
2018-03-28T02:34:09.034Z,138
2018-03-28T02:34:21.200Z,138
2018-03-28T02:34:33.365Z,142
2018-03-28T02:34:45.533Z,142
2018-03-28T02:34:57.703Z,142
2018-03-28T02:35:09.910Z,142
2018-03-28T02:35:22.074Z,159
2018-03-28T02:35:34.246Z,159
2018-03-28T02:35:46.446Z,99
2018-03-28T02:35:58.654Z,130
2018-03-28T02:36:10.877Z,140
2018-03-28T02:36:23.062Z,144
2018-03-28T02:36:35.290Z,138
2018-03-28T02:36:47.491Z,148
2018-03-28T02:36:59.669Z,163
2018-03-28T02:37:11.867Z,151
2018-03-28T02:37:24.069Z,159
2018-03-28T02:37:36.259Z,169
2018-03-28T02:37:48.414Z,182
2018-03-28T02:38:00.586Z,142
2018-03-28T02:38:12.766Z,142
2018-03-28T02:38:24.943Z,142
2018-03-28T02:38:37.112Z,142
2018-03-28T02:38:49.293Z,112
2018-03-28T02:39:01.463Z,108
2018-03-28T02:39:13.638Z,107
2018-03-28T02:39:25.848Z,115
2018-03-28T02:39:38.068Z,126
2018-03-28T02:39:50.230Z,126
2018-03-28T02:40:02.396Z,126
2018-03-28T02:40:14.615Z,147
2018-03-28T02:40:26.787Z,142
2018-03-28T02:40:38.953Z,117
2018-03-28T02:40:51.186Z,119
2018-03-28T02:41:03.356Z,112
2018-03-28T02:41:15.534Z,118
2018-03-28T02:41:27.717Z,156
2018-03-28T02:41:40.004Z,148
2018-03-28T02:41:52.177Z,186
2018-03-28T02:42:04.362Z,181
2018-03-28T02:42:16.550Z,181
2018-03-28T02:42:28.770Z,181
2018-03-28T02:42:40.936Z,181
2018-03-28T02:42:53.123Z,181
2018-03-28T02:43:05.319Z,181
2018-03-28T02:43:17.518Z,181
2018-03-28T02:43:29.720Z,181
2018-03-28T02:43:41.949Z,181
2018-03-28T02:43:54.136Z,142
2018-03-28T02:44:06.456Z,143
2018-03-28T02:44:18.660Z,128
2018-03-28T02:44:30.823Z,162
2018-03-28T02:44:43.036Z,155
2018-03-28T02:44:55.232Z,166
2018-03-28T02:45:07.427Z,119
2018-03-28T02:45:19.675Z,115
2018-03-28T02:45:31.859Z,156
2018-03-28T02:45:44.033Z,144
2018-03-28T02:45:56.217Z,142
2018-03-28T02:46:08.404Z,143
2018-03-28T02:46:20.573Z,143
2018-03-28T02:46:32.742Z,143
2018-03-28T02:46:44.898Z,143
2018-03-28T02:46:57.075Z,133
2018-03-28T02:47:09.292Z,138
2018-03-28T02:47:21.465Z,152
2018-03-28T02:47:33.650Z,157
2018-03-28T02:47:45.888Z,157
2018-03-28T02:47:58.404Z,157
2018-03-28T02:48:10.619Z,157